首页
METAR-TAF:

METAR-TAF

机场 :

萨斯卡通, 薩斯喀徹溫, 加拿大

萨斯卡通约翰·乔治·迪芬贝克国际机场

纬度: 52-10N, 经度: 106-41W, 海拔: 501米

当前天气观测

该预报发布于59分钟前的23:03 UTC
风速9节,风向西转西南
温度 2°C
湿度 75%
气压 1009 hPa
能見度: 24.1公里
少量云层高于14000英尺
散云层高于30000英尺

METAR: CYXE 172303Z 25009KT 15SM FEW140 SCT300 02/M02 A2981 RMK AC1CI2 SLP126

时间: 18:02 (00:02 UTC)

预报

该预报发布于22分钟前的23:40 UTC
预报有效从18日的 00点(UTC)到 18日的 24点(UTC)
风速10节,风向西转西南
能見度: 10公里
少量云层高于14000英尺
散云层高于30000英尺
成为
从 18日的 04点(UTC)到 18日的 06点(UTC)
风速8节,风向南转西南
从 18日的 1800点(UTC)
风速12节,风向西南
能見度: 10公里
多云层高于14000英尺

TAF: CYXE 172340Z 1800/1824 25010KT P6SM FEW140 SCT300 BECMG 1804/1806 21008KT FM181800 23012KT P6SM BKN140 RMK NXT FCST BY 180600Z

超过4000个机场的气象观测和天气预报(METAR&TAF报告)。

可查询的气象台以黄色和红色小点在地图上表示。

将鼠标移到小点上方,可查看气象台名称。

然后点击查看天气观测和预报。

如需切换地图:点击带黑十字的绿色按钮放大地图;点击带横线的绿色按钮缩小地图;或者点击绿色箭头查看邻近地区的地图。


METAR-TAF: